createdAt,value
2023-09-25T00:01:13.313Z,13.38
2023-09-25T00:03:40.123Z,13.44
2023-09-25T00:06:06.837Z,13.38
2023-09-25T00:08:33.528Z,13.38
2023-09-25T00:11:00.135Z,13.44
2023-09-25T00:13:26.874Z,13.38
2023-09-25T00:15:53.929Z,13.38
2023-09-25T00:18:20.702Z,13.25
2023-09-25T00:20:47.708Z,13.31
2023-09-25T00:23:14.340Z,13.19
2023-09-25T00:25:41.204Z,13.13
2023-09-25T00:28:08.295Z,13.19
2023-09-25T00:30:35.302Z,13.13
2023-09-25T00:33:02.162Z,13.06
2023-09-25T00:35:29.048Z,13.13
2023-09-25T00:37:55.691Z,13.19
2023-09-25T00:40:25.740Z,13.06
2023-09-25T00:42:57.211Z,13.13
2023-09-25T00:45:24.434Z,13.19
2023-09-25T00:47:52.608Z,13.06
2023-09-25T00:50:23.097Z,12.94
2023-09-25T00:52:49.833Z,13.06
2023-09-25T00:55:17.475Z,13.00
2023-09-25T00:57:49.819Z,12.88
2023-09-25T01:00:16.721Z,12.81
2023-09-25T01:02:43.829Z,12.94
2023-09-25T01:05:11.199Z,12.94
2023-09-25T01:07:38.879Z,13.00
2023-09-25T01:10:16.064Z,12.88
2023-09-25T01:12:46.976Z,12.88
2023-09-25T01:15:15.354Z,12.88
2023-09-25T01:17:43.056Z,12.81
2023-09-25T01:20:18.452Z,12.75
2023-09-25T01:22:47.666Z,12.69
2023-09-25T01:25:14.695Z,12.81
2023-09-25T01:27:45.588Z,12.75
2023-09-25T01:30:14.957Z,12.69
2023-09-25T01:32:45.546Z,12.69
2023-09-25T01:35:24.141Z,12.63
2023-09-25T01:37:55.441Z,12.63
2023-09-25T01:40:22.190Z,12.69
2023-09-25T01:42:49.341Z,12.75
2023-09-25T01:45:18.898Z,12.69
2023-09-25T01:47:54.267Z,12.56
2023-09-25T01:50:23.206Z,12.63
2023-09-25T01:52:53.900Z,12.63
2023-09-25T01:55:20.803Z,12.56
2023-09-25T01:57:47.692Z,12.50
2023-09-25T02:00:14.976Z,12.44
2023-09-25T02:02:41.792Z,12.56
2023-09-25T02:05:09.024Z,12.50
2023-09-25T02:07:35.881Z,12.38
2023-09-25T02:10:02.545Z,12.44
2023-09-25T02:12:29.152Z,12.38
2023-09-25T02:15:01.311Z,12.44
2023-09-25T02:17:30.897Z,12.38
2023-09-25T02:20:09.541Z,12.38
2023-09-25T02:22:36.324Z,12.38
2023-09-25T02:25:03.323Z,12.38
2023-09-25T02:27:29.989Z,12.38
2023-09-25T02:29:56.685Z,12.50
2023-09-25T02:32:24.353Z,12.38
2023-09-25T02:34:50.934Z,12.38
2023-09-25T02:37:18.505Z,12.44
2023-09-25T02:39:45.149Z,12.38
2023-09-25T02:42:11.812Z,12.31
2023-09-25T02:44:38.408Z,12.25
2023-09-25T02:47:05.175Z,12.25
2023-09-25T02:49:31.857Z,12.25
2023-09-25T02:51:58.498Z,12.25
2023-09-25T02:54:25.117Z,12.19
2023-09-25T02:56:51.819Z,12.25
2023-09-25T02:59:18.404Z,12.25
2023-09-25T03:01:45.081Z,12.25
2023-09-25T03:04:12.106Z,12.25
2023-09-25T03:06:38.881Z,12.25
2023-09-25T03:09:05.865Z,12.25
2023-09-25T03:11:33.153Z,12.25
2023-09-25T03:13:59.865Z,12.19
2023-09-25T03:16:26.568Z,12.19
2023-09-25T03:18:53.344Z,12.25
2023-09-25T03:21:20.102Z,12.25
2023-09-25T03:23:46.820Z,12.25
2023-09-25T03:26:18.935Z,12.25
2023-09-25T03:28:47.381Z,12.25
2023-09-25T03:31:14.317Z,12.25
2023-09-25T03:33:42.404Z,12.25
2023-09-25T03:36:10.016Z,12.25
2023-09-25T03:38:38.258Z,12.25
2023-09-25T03:41:05.573Z,12.25
2023-09-25T03:43:32.260Z,12.19
2023-09-25T03:45:59.525Z,12.19
2023-09-25T03:48:26.390Z,12.25
2023-09-25T03:50:53.014Z,12.25
2023-09-25T03:53:19.608Z,12.19
2023-09-25T03:55:47.875Z,12.13
2023-09-25T03:58:15.001Z,12.13
2023-09-25T04:00:41.689Z,12.19
2023-09-25T04:03:08.621Z,12.19
2023-09-25T04:05:35.699Z,12.19
2023-09-25T04:08:02.444Z,12.19
2023-09-25T04:10:29.411Z,12.19
2023-09-25T04:12:57.059Z,12.25
2023-09-25T04:15:25.413Z,12.19
2023-09-25T04:17:53.794Z,12.13
2023-09-25T04:20:25.360Z,12.19
2023-09-25T04:22:59.172Z,12.25
2023-09-25T04:25:25.808Z,12.25
2023-09-25T04:27:55.286Z,12.19
2023-09-25T04:30:24.597Z,12.25
2023-09-25T04:32:56.302Z,12.25
2023-09-25T04:35:24.712Z,12.31
2023-09-25T04:37:52.484Z,12.31
2023-09-25T04:40:22.364Z,12.31
2023-09-25T04:42:50.202Z,12.31
2023-09-25T04:45:19.780Z,12.25
2023-09-25T04:47:48.693Z,12.25
2023-09-25T04:50:16.862Z,12.25
2023-09-25T04:52:47.188Z,12.31
2023-09-25T04:55:14.761Z,12.38
2023-09-25T04:57:44.241Z,12.44
2023-09-25T05:00:17.677Z,12.38
2023-09-25T05:02:46.932Z,12.44
2023-09-25T05:05:14.930Z,12.44
2023-09-25T05:07:43.377Z,12.44
2023-09-25T05:10:11.492Z,12.44
2023-09-25T05:12:40.608Z,12.56
2023-09-25T05:15:12.039Z,12.44
2023-09-25T05:17:40.184Z,12.50
2023-09-25T05:20:12.061Z,12.50
2023-09-25T05:22:46.870Z,12.50
2023-09-25T05:25:14.798Z,12.50
2023-09-25T05:27:44.242Z,12.50
2023-09-25T05:30:12.442Z,12.50
2023-09-25T05:32:40.569Z,12.44
2023-09-25T05:35:08.885Z,12.50
2023-09-25T05:37:36.118Z,12.50
2023-09-25T05:40:04.160Z,12.44
2023-09-25T05:42:30.789Z,12.44
2023-09-25T05:44:57.566Z,12.50
2023-09-25T05:47:24.555Z,12.50
2023-09-25T05:49:51.665Z,12.50
2023-09-25T05:52:18.855Z,12.50
2023-09-25T05:54:46.729Z,12.50
2023-09-25T05:57:13.718Z,12.56
2023-09-25T05:59:40.959Z,12.56
2023-09-25T06:02:08.319Z,12.56
2023-09-25T06:04:37.622Z,12.56
2023-09-25T06:07:05.909Z,12.56
2023-09-25T06:09:34.099Z,12.56
2023-09-25T06:12:02.078Z,12.63
2023-09-25T06:14:29.495Z,12.63
2023-09-25T06:16:58.362Z,12.63
2023-09-25T06:19:28.023Z,12.69
2023-09-25T06:21:55.274Z,12.75
2023-09-25T06:24:23.291Z,12.69
2023-09-25T06:26:50.849Z,12.75
2023-09-25T06:29:18.207Z,12.81
2023-09-25T06:31:59.522Z,12.88
2023-09-25T06:34:27.683Z,12.94
2023-09-25T06:36:55.184Z,12.94
2023-09-25T06:39:22.703Z,12.94
2023-09-25T06:41:49.657Z,13.06
2023-09-25T06:44:16.360Z,13.06
2023-09-25T06:46:44.758Z,13.13
2023-09-25T06:49:11.798Z,13.19
2023-09-25T06:51:38.949Z,13.19
2023-09-25T06:54:05.847Z,13.25
2023-09-25T06:56:32.644Z,13.25
2023-09-25T06:58:59.340Z,13.31
2023-09-25T07:01:26.107Z,13.31
2023-09-25T07:03:53.059Z,13.44
2023-09-25T07:06:20.400Z,13.44
2023-09-25T07:08:47.702Z,13.50
2023-09-25T07:11:18.572Z,13.44
2023-09-25T07:13:45.348Z,13.50
2023-09-25T07:16:12.203Z,13.63
2023-09-25T07:18:39.463Z,13.63
2023-09-25T07:21:06.910Z,13.69
2023-09-25T07:23:33.928Z,13.75
2023-09-25T07:26:09.699Z,13.75
2023-09-25T07:28:37.668Z,13.88
2023-09-25T07:31:06.870Z,13.94
2023-09-25T07:33:35.272Z,14.06
2023-09-25T07:36:04.779Z,14.19
2023-09-25T07:38:33.136Z,14.31
2023-09-25T07:41:01.494Z,14.44
2023-09-25T07:43:42.373Z,14.75
2023-09-25T07:46:20.529Z,14.94
2023-09-25T07:48:48.556Z,14.88
2023-09-25T07:51:15.601Z,15.06
2023-09-25T07:53:45.962Z,15.25
2023-09-25T07:56:13.105Z,15.31
2023-09-25T07:58:41.195Z,15.31
2023-09-25T08:01:10.051Z,15.38
2023-09-25T08:03:39.383Z,15.50
2023-09-25T08:06:07.225Z,15.56
2023-09-25T08:08:36.910Z,15.88
2023-09-25T08:11:04.062Z,15.94
2023-09-25T08:13:31.157Z,16.06
2023-09-25T08:16:05.938Z,16.38
2023-09-25T08:18:32.939Z,16.31
2023-09-25T08:21:00.504Z,16.31
2023-09-25T08:23:27.829Z,16.50
2023-09-25T08:25:54.845Z,16.38
2023-09-25T08:28:21.510Z,16.31
2023-09-25T08:30:48.560Z,16.50
2023-09-25T08:33:16.642Z,16.13
2023-09-25T08:35:44.602Z,16.38
2023-09-25T08:38:11.661Z,16.63
2023-09-25T08:40:45.419Z,16.44
2023-09-25T08:43:20.326Z,16.56
2023-09-25T08:45:49.564Z,17.06
2023-09-25T08:48:19.226Z,16.75
2023-09-25T08:50:47.869Z,16.88
2023-09-25T08:53:14.691Z,16.81
2023-09-25T08:55:43.979Z,17.13
2023-09-25T08:58:11.497Z,17.25
2023-09-25T09:00:41.242Z,17.31
2023-09-25T09:03:08.166Z,17.13
2023-09-25T09:05:35.168Z,17.38
2023-09-25T09:08:06.970Z,17.69
2023-09-25T09:10:41.367Z,17.25
2023-09-25T09:13:13.995Z,17.56
2023-09-25T09:15:42.092Z,17.81
2023-09-25T09:18:25.722Z,17.69
2023-09-25T09:20:55.052Z,17.75
2023-09-25T09:23:21.801Z,18.13
2023-09-25T09:25:49.366Z,18.31
2023-09-25T09:28:16.180Z,18.44
2023-09-25T09:30:43.362Z,18.38
2023-09-25T09:33:11.021Z,18.56
2023-09-25T09:35:38.531Z,18.56
2023-09-25T09:38:06.915Z,18.56
2023-09-25T09:40:33.744Z,18.31
2023-09-25T09:43:03.102Z,18.44
2023-09-25T09:45:31.532Z,18.75
2023-09-25T09:47:59.511Z,18.94
2023-09-25T09:50:30.295Z,18.88
2023-09-25T09:53:00.908Z,18.63
2023-09-25T09:55:32.795Z,19.13
2023-09-25T09:58:01.437Z,19.13
2023-09-25T10:00:28.742Z,19.19
2023-09-25T10:02:56.493Z,19.56
2023-09-25T10:05:23.408Z,19.13
2023-09-25T10:08:12.728Z,19.19
2023-09-25T10:10:49.264Z,19.38
2023-09-25T10:13:26.146Z,19.56
2023-09-25T10:16:01.595Z,19.63
2023-09-25T10:18:30.247Z,19.88
2023-09-25T10:21:11.734Z,19.69
2023-09-25T10:23:44.342Z,20.13
2023-09-25T10:26:22.941Z,20.25
2023-09-25T10:29:12.806Z,19.31
2023-09-25T10:31:39.499Z,20.25
2023-09-25T10:34:09.674Z,20.69
2023-09-25T10:36:38.276Z,20.63
2023-09-25T10:39:09.828Z,20.88
2023-09-25T10:41:40.130Z,20.69
2023-09-25T10:44:06.992Z,21.19
2023-09-25T10:46:33.807Z,21.31
2023-09-25T10:49:01.811Z,21.50
2023-09-25T10:51:28.568Z,21.44
2023-09-25T10:53:55.434Z,21.56
2023-09-25T10:56:22.609Z,21.06
2023-09-25T10:58:53.174Z,21.25
2023-09-25T11:01:32.225Z,21.69
2023-09-25T11:04:01.127Z,21.50
2023-09-25T11:06:29.418Z,21.69
2023-09-25T11:09:05.282Z,21.94
2023-09-25T11:11:32.508Z,21.69
2023-09-25T11:14:00.212Z,21.94
2023-09-25T11:16:26.990Z,21.88
2023-09-25T11:19:15.619Z,22.19
2023-09-25T11:21:47.518Z,22.75
2023-09-25T11:24:14.841Z,22.94
2023-09-25T11:26:43.747Z,23.06
2023-09-25T11:29:12.080Z,23.19
2023-09-25T11:34:10.935Z,22.44
2023-09-25T11:36:46.762Z,22.88
2023-09-25T11:39:17.527Z,22.75
2023-09-25T11:41:45.219Z,22.63
2023-09-25T11:44:12.011Z,22.69
2023-09-25T11:46:38.912Z,23.00
2023-09-25T11:49:05.953Z,22.94
2023-09-25T11:51:34.648Z,23.38
2023-09-25T11:54:03.192Z,23.44
2023-09-25T11:56:32.131Z,23.63
2023-09-25T11:58:58.842Z,23.50
2023-09-25T12:01:25.597Z,23.13
2023-09-25T12:03:52.574Z,22.75
2023-09-25T12:06:19.453Z,22.75
2023-09-25T12:08:46.169Z,22.56
2023-09-25T12:11:12.865Z,23.19
2023-09-25T12:13:39.595Z,22.75
2023-09-25T12:16:06.391Z,22.69
2023-09-25T12:18:33.275Z,23.06
2023-09-25T12:20:59.979Z,22.75
2023-09-25T12:23:26.690Z,23.44
2023-09-25T12:25:53.340Z,23.25
2023-09-25T12:28:20.025Z,23.19
2023-09-25T12:30:47.687Z,23.88
2023-09-25T12:33:14.684Z,23.88
2023-09-25T12:35:42.780Z,23.75
2023-09-25T12:38:10.285Z,23.94
2023-09-25T12:40:37.053Z,23.88
2023-09-25T12:43:03.783Z,23.63
2023-09-25T12:45:30.576Z,23.75
2023-09-25T12:47:57.533Z,23.44
2023-09-25T12:50:24.292Z,23.06
2023-09-25T12:52:50.960Z,23.56
2023-09-25T12:55:17.667Z,23.94
2023-09-25T12:57:44.500Z,23.75
2023-09-25T13:00:11.633Z,24.25
2023-09-25T13:02:38.358Z,23.81
2023-09-25T13:05:06.361Z,23.38
2023-09-25T13:07:33.368Z,23.25
2023-09-25T13:10:00.126Z,23.25
2023-09-25T13:12:26.905Z,23.31
2023-09-25T13:14:54.040Z,23.44
2023-09-25T13:17:20.753Z,23.13
2023-09-25T13:19:47.449Z,22.75
2023-09-25T13:22:32.902Z,23.19
2023-09-25T13:25:00.181Z,23.38
2023-09-25T13:27:27.388Z,23.63
2023-09-25T13:29:54.132Z,23.06
2023-09-25T13:32:20.841Z,23.25
2023-09-25T13:34:47.485Z,23.81
2023-09-25T13:37:14.270Z,23.50
2023-09-25T13:39:41.163Z,23.69
2023-09-25T13:42:08.383Z,23.38
2023-09-25T13:44:36.062Z,23.56
2023-09-25T13:47:03.047Z,23.94
2023-09-25T13:49:30.048Z,23.38
2023-09-25T13:51:58.125Z,23.56
2023-09-25T13:54:24.998Z,23.56
2023-09-25T13:56:51.829Z,23.31
2023-09-25T13:59:18.885Z,23.44
2023-09-25T14:01:48.325Z,23.50
2023-09-25T14:04:15.557Z,22.81
2023-09-25T14:06:43.254Z,23.44
2023-09-25T14:09:10.387Z,23.25
2023-09-25T14:11:37.657Z,23.63
2023-09-25T14:14:05.493Z,23.56
2023-09-25T14:16:32.270Z,23.38
2023-09-25T14:18:59.142Z,23.81
2023-09-25T14:21:25.944Z,23.88
2023-09-25T14:23:52.782Z,23.56
2023-09-25T14:26:19.565Z,23.31
2023-09-25T14:28:46.318Z,23.50
2023-09-25T14:31:13.336Z,23.50
2023-09-25T14:33:47.289Z,23.63
2023-09-25T14:36:14.078Z,23.44
2023-09-25T14:38:40.755Z,23.44
2023-09-25T14:41:07.459Z,23.31
2023-09-25T14:43:35.165Z,23.63
2023-09-25T14:46:02.068Z,23.13
2023-09-25T14:48:29.033Z,23.13
2023-09-25T14:50:57.467Z,23.13
2023-09-25T14:53:24.230Z,23.13
2023-09-25T14:55:57.012Z,22.88
2023-09-25T14:58:24.640Z,22.75
2023-09-25T15:01:00.817Z,23.25
2023-09-25T15:03:28.618Z,23.44
2023-09-25T15:05:55.797Z,23.63
2023-09-25T15:08:25.145Z,23.00
2023-09-25T15:10:54.063Z,22.75
2023-09-25T15:13:21.253Z,22.94
2023-09-25T15:15:49.609Z,23.00
2023-09-25T15:18:17.699Z,23.13
2023-09-25T15:20:44.460Z,23.13
2023-09-25T15:23:12.028Z,23.31
2023-09-25T15:25:39.114Z,23.63
2023-09-25T15:28:06.177Z,23.63
2023-09-25T15:30:32.938Z,23.31
2023-09-25T15:32:59.680Z,22.88
2023-09-25T15:35:26.367Z,23.25
2023-09-25T15:37:53.068Z,23.19
2023-09-25T15:40:24.105Z,22.81
2023-09-25T15:42:52.504Z,23.31
2023-09-25T15:45:20.030Z,23.50
2023-09-25T15:47:46.951Z,23.38
2023-09-25T15:50:13.790Z,23.31
2023-09-25T15:52:40.408Z,22.94
2023-09-25T15:55:07.543Z,22.81
2023-09-25T15:57:34.494Z,22.69
2023-09-25T16:00:01.324Z,22.63
2023-09-25T16:02:28.101Z,22.63
2023-09-25T16:04:54.910Z,22.56
2023-09-25T16:07:21.681Z,22.69
2023-09-25T16:09:48.379Z,22.69
2023-09-25T16:12:14.972Z,22.63
2023-09-25T16:14:41.597Z,22.56
2023-09-25T16:17:10.969Z,22.56
2023-09-25T16:19:37.838Z,22.31
2023-09-25T16:22:05.304Z,22.44
2023-09-25T16:24:34.513Z,22.50
2023-09-25T16:27:01.202Z,22.44
2023-09-25T16:29:34.950Z,22.56
2023-09-25T16:32:01.696Z,22.56
2023-09-25T16:34:28.429Z,22.50
2023-09-25T16:36:55.167Z,22.50
2023-09-25T16:39:22.643Z,22.38
2023-09-25T16:41:50.232Z,22.31
2023-09-25T16:44:16.820Z,22.44
2023-09-25T16:46:43.606Z,22.44
2023-09-25T16:49:10.487Z,22.38
2023-09-25T16:51:37.269Z,22.13
2023-09-25T16:54:03.964Z,22.19
2023-09-25T16:56:30.566Z,22.19
2023-09-25T16:58:57.181Z,22.06
2023-09-25T17:01:23.919Z,22.00
2023-09-25T17:03:51.079Z,21.94
2023-09-25T17:06:18.085Z,21.81
2023-09-25T17:08:44.740Z,21.94
2023-09-25T17:11:11.479Z,21.88
2023-09-25T17:13:38.181Z,21.75
2023-09-25T17:16:09.754Z,21.75
2023-09-25T17:18:36.714Z,21.69
2023-09-25T17:21:04.296Z,21.56
2023-09-25T17:23:30.907Z,21.50
2023-09-25T17:25:57.569Z,21.69
2023-09-25T17:28:24.197Z,21.69
2023-09-25T17:31:03.366Z,21.63
2023-09-25T17:33:35.621Z,21.69
2023-09-25T17:36:02.282Z,21.69
2023-09-25T17:38:31.883Z,21.50
2023-09-25T17:40:58.559Z,21.31
2023-09-25T17:43:26.804Z,21.38
2023-09-25T17:45:54.430Z,21.31
2023-09-25T17:48:21.208Z,21.38
2023-09-25T17:50:54.702Z,21.31
2023-09-25T17:53:22.543Z,21.31
2023-09-25T17:55:50.463Z,21.19
2023-09-25T17:58:29.419Z,21.19
2023-09-25T18:01:01.140Z,21.06
2023-09-25T18:03:29.384Z,21.13
2023-09-25T18:05:56.206Z,21.00
2023-09-25T18:08:23.107Z,20.81
2023-09-25T18:10:49.859Z,20.75
2023-09-25T18:13:21.289Z,20.75
2023-09-25T18:15:49.735Z,20.81
2023-09-25T18:18:16.670Z,20.75
2023-09-25T18:20:43.415Z,20.81
2023-09-25T18:23:10.176Z,20.75
2023-09-25T18:25:39.008Z,20.81
2023-09-25T18:28:05.997Z,20.75
2023-09-25T18:30:32.835Z,20.88
2023-09-25T18:33:01.110Z,20.75
2023-09-25T18:35:27.854Z,20.75
2023-09-25T18:37:54.453Z,20.75
2023-09-25T18:40:21.120Z,20.50
2023-09-25T18:42:47.803Z,20.50
2023-09-25T18:45:14.944Z,20.50
2023-09-25T18:47:41.812Z,20.31
2023-09-25T18:50:08.797Z,20.44
2023-09-25T18:52:36.503Z,20.31
2023-09-25T18:55:04.542Z,20.19
2023-09-25T18:57:31.415Z,20.19
2023-09-25T18:59:58.357Z,20.19
2023-09-25T19:02:25.122Z,20.13
2023-09-25T19:04:54.006Z,20.13
2023-09-25T19:07:21.182Z,20.13
2023-09-25T19:09:50.060Z,20.13
2023-09-25T19:12:17.379Z,20.13
2023-09-25T19:14:44.099Z,20.06
2023-09-25T19:17:10.825Z,20.06
2023-09-25T19:19:38.804Z,20.13
2023-09-25T19:22:06.148Z,20.19
2023-09-25T19:24:32.904Z,20.13
2023-09-25T19:26:59.608Z,20.13
2023-09-25T19:29:27.210Z,20.00
2023-09-25T19:31:53.925Z,19.88
2023-09-25T19:34:20.807Z,19.75
2023-09-25T19:36:47.567Z,19.75
2023-09-25T19:39:14.218Z,19.56
2023-09-25T19:41:40.940Z,19.63
2023-09-25T19:44:08.239Z,19.50
2023-09-25T19:46:36.419Z,19.50
2023-09-25T19:49:04.132Z,19.63
2023-09-25T19:51:31.043Z,19.63
2023-09-25T19:53:57.871Z,19.56
2023-09-25T19:56:24.474Z,19.44
2023-09-25T19:58:54.371Z,19.44
2023-09-25T20:01:27.395Z,19.63
2023-09-25T20:03:54.440Z,19.75
2023-09-25T20:06:21.446Z,19.63
2023-09-25T20:08:48.211Z,19.56
2023-09-25T20:11:14.832Z,19.56
2023-09-25T20:13:41.438Z,19.38
2023-09-25T20:16:08.244Z,19.44
2023-09-25T20:18:35.080Z,19.63
2023-09-25T20:21:01.866Z,19.56
2023-09-25T20:23:28.528Z,19.31
2023-09-25T20:25:55.619Z,19.38
2023-09-25T20:28:22.309Z,19.38
2023-09-25T20:30:49.185Z,19.50
2023-09-25T20:33:16.432Z,19.44
2023-09-25T20:35:43.195Z,19.25
2023-09-25T20:38:09.861Z,19.13
2023-09-25T20:40:36.504Z,19.25
2023-09-25T20:43:03.288Z,18.94
2023-09-25T20:45:29.943Z,18.94
2023-09-25T20:47:57.549Z,19.13
2023-09-25T20:50:28.015Z,19.06
2023-09-25T20:52:56.051Z,19.13
2023-09-25T20:55:23.323Z,19.19
2023-09-25T20:57:50.385Z,19.19
2023-09-25T21:00:17.199Z,19.06
2023-09-25T21:02:44.057Z,18.94
2023-09-25T21:05:11.394Z,19.00
2023-09-25T21:07:38.394Z,18.94
2023-09-25T21:10:05.783Z,19.00
2023-09-25T21:12:32.586Z,18.88
2023-09-25T21:14:59.400Z,18.81
2023-09-25T21:17:26.130Z,18.81
2023-09-25T21:19:52.859Z,18.75
2023-09-25T21:22:19.894Z,18.75
2023-09-25T21:24:50.610Z,18.75
2023-09-25T21:27:18.732Z,18.81
2023-09-25T21:29:45.612Z,18.88
2023-09-25T21:32:12.927Z,18.69
2023-09-25T21:34:39.785Z,18.56
2023-09-25T21:37:06.499Z,18.56
2023-09-25T21:39:33.143Z,18.56
2023-09-25T21:41:59.805Z,18.63
2023-09-25T21:44:28.642Z,18.63
2023-09-25T21:46:56.939Z,18.56
2023-09-25T21:49:23.785Z,18.38
2023-09-25T21:51:50.544Z,18.44
2023-09-25T21:54:18.032Z,18.31
2023-09-25T21:56:44.655Z,18.25
2023-09-25T21:59:11.282Z,18.44
2023-09-25T22:01:37.908Z,18.38
2023-09-25T22:04:05.637Z,18.25
2023-09-25T22:06:33.030Z,18.38
2023-09-25T22:08:59.675Z,18.19
2023-09-25T22:11:26.332Z,18.06
2023-09-25T22:13:55.237Z,17.88
2023-09-25T22:16:23.083Z,18.06
2023-09-25T22:18:50.140Z,18.13
2023-09-25T22:21:17.205Z,18.00
2023-09-25T22:23:44.578Z,17.88
2023-09-25T22:26:12.045Z,17.88
2023-09-25T22:28:39.686Z,17.69
2023-09-25T22:31:15.817Z,17.63
2023-09-25T22:33:44.315Z,17.69
2023-09-25T22:36:11.562Z,17.50
2023-09-25T22:38:38.699Z,17.56
2023-09-25T22:41:05.621Z,17.50
2023-09-25T22:43:32.954Z,17.56
2023-09-25T22:45:59.971Z,17.63
2023-09-25T22:48:26.798Z,17.38
2023-09-25T22:50:53.628Z,17.44
2023-09-25T22:53:20.340Z,17.06
2023-09-25T22:55:46.934Z,16.88
2023-09-25T22:58:13.635Z,16.94
2023-09-25T23:01:36.504Z,17.13
2023-09-25T23:04:04.559Z,17.06
2023-09-25T23:06:31.228Z,16.75
2023-09-25T23:08:57.899Z,16.94
2023-09-25T23:11:24.510Z,17.00
2023-09-25T23:13:51.541Z,17.06
2023-09-25T23:16:18.482Z,16.94
2023-09-25T23:19:41.430Z,16.69
2023-09-25T23:22:08.119Z,16.88
2023-09-25T23:24:34.773Z,16.75
2023-09-25T23:27:01.382Z,16.75
2023-09-25T23:29:28.381Z,16.63
2023-09-25T23:31:55.052Z,16.75
2023-09-25T23:34:21.766Z,16.75
2023-09-25T23:36:48.450Z,16.25
2023-09-25T23:39:16.041Z,16.25
2023-09-25T23:41:42.658Z,16.19
2023-09-25T23:44:09.265Z,16.25
2023-09-25T23:46:36.120Z,16.25
2023-09-25T23:49:02.895Z,16.19
2023-09-25T23:51:29.571Z,16.25
2023-09-25T23:53:56.214Z,16.19
2023-09-25T23:56:22.857Z,16.25
2023-09-25T23:59:45.555Z,16.06
